sensor_id;sensor_type;location;lat;lon;timestamp;P1;durP1;ratioP1;P2;durP2;ratioP2
19782;SDS011;10051;40.294;-3.754;2024-03-08T00:02:13;7.45;;;1.40;;
19782;SDS011;10051;40.294;-3.754;2024-03-08T00:04:39;2.83;;;1.10;;
19782;SDS011;10051;40.294;-3.754;2024-03-08T00:07:05;3.33;;;1.20;;
19782;SDS011;10051;40.294;-3.754;2024-03-08T00:09:32;2.17;;;1.10;;
19782;SDS011;10051;40.294;-3.754;2024-03-08T00:11:57;3.20;;;1.10;;
19782;SDS011;10051;40.294;-3.754;2024-03-08T00:14:23;2.92;;;1.20;;
19782;SDS011;10051;40.294;-3.754;2024-03-08T00:16:49;3.35;;;1.40;;
19782;SDS011;10051;40.294;-3.754;2024-03-08T00:19:14;2.35;;;1.25;;
19782;SDS011;10051;40.294;-3.754;2024-03-08T00:21:40;2.63;;;1.50;;
19782;SDS011;10051;40.294;-3.754;2024-03-08T00:24:07;4.90;;;1.70;;
19782;SDS011;10051;40.294;-3.754;2024-03-08T00:26:32;5.80;;;1.70;;
19782;SDS011;10051;40.294;-3.754;2024-03-08T00:28:58;2.92;;;1.50;;
19782;SDS011;10051;40.294;-3.754;2024-03-08T00:31:24;4.70;;;1.80;;
19782;SDS011;10051;40.294;-3.754;2024-03-08T00:33:50;3.08;;;1.70;;
19782;SDS011;10051;40.294;-3.754;2024-03-08T00:36:16;3.25;;;1.65;;
19782;SDS011;10051;40.294;-3.754;2024-03-08T00:38:41;3.63;;;1.70;;
19782;SDS011;10051;40.294;-3.754;2024-03-08T00:41:07;5.10;;;1.73;;
19782;SDS011;10051;40.294;-3.754;2024-03-08T00:43:33;3.97;;;1.95;;
19782;SDS011;10051;40.294;-3.754;2024-03-08T00:45:59;3.25;;;2.00;;
19782;SDS011;10051;40.294;-3.754;2024-03-08T00:48:27;6.35;;;2.30;;
19782;SDS011;10051;40.294;-3.754;2024-03-08T00:50:53;5.80;;;2.95;;
19782;SDS011;10051;40.294;-3.754;2024-03-08T00:53:18;5.13;;;3.00;;
19782;SDS011;10051;40.294;-3.754;2024-03-08T00:55:44;6.57;;;3.28;;
19782;SDS011;10051;40.294;-3.754;2024-03-08T00:58:12;5.95;;;2.90;;
19782;SDS011;10051;40.294;-3.754;2024-03-08T01:00:38;7.22;;;2.95;;
19782;SDS011;10051;40.294;-3.754;2024-03-08T01:03:06;5.32;;;2.90;;
19782;SDS011;10051;40.294;-3.754;2024-03-08T01:05:32;5.55;;;2.70;;
19782;SDS011;10051;40.294;-3.754;2024-03-08T01:07:58;7.20;;;3.40;;
19782;SDS011;10051;40.294;-3.754;2024-03-08T01:10:23;6.82;;;3.20;;
19782;SDS011;10051;40.294;-3.754;2024-03-08T01:12:49;7.65;;;3.17;;
19782;SDS011;10051;40.294;-3.754;2024-03-08T01:15:15;7.25;;;3.38;;
19782;SDS011;10051;40.294;-3.754;2024-03-08T01:17:40;8.00;;;3.83;;
19782;SDS011;10051;40.294;-3.754;2024-03-08T01:20:07;10.18;;;3.72;;
19782;SDS011;10051;40.294;-3.754;2024-03-08T01:22:36;18.27;;;4.50;;
19782;SDS011;10051;40.294;-3.754;2024-03-08T01:25:01;24.38;;;4.95;;
19782;SDS011;10051;40.294;-3.754;2024-03-08T01:27:29;14.38;;;3.75;;
19782;SDS011;10051;40.294;-3.754;2024-03-08T01:29:55;17.88;;;3.50;;
19782;SDS011;10051;40.294;-3.754;2024-03-08T01:32:21;15.52;;;3.30;;
19782;SDS011;10051;40.294;-3.754;2024-03-08T01:34:48;12.75;;;3.08;;
19782;SDS011;10051;40.294;-3.754;2024-03-08T01:37:14;10.82;;;2.65;;
19782;SDS011;10051;40.294;-3.754;2024-03-08T01:39:40;13.57;;;3.20;;
19782;SDS011;10051;40.294;-3.754;2024-03-08T01:42:05;11.18;;;3.20;;
19782;SDS011;10051;40.294;-3.754;2024-03-08T01:44:31;10.80;;;3.22;;
19782;SDS011;10051;40.294;-3.754;2024-03-08T01:46:57;12.85;;;3.50;;
19782;SDS011;10051;40.294;-3.754;2024-03-08T01:49:23;9.48;;;2.72;;
19782;SDS011;10051;40.294;-3.754;2024-03-08T01:51:50;8.25;;;1.88;;
19782;SDS011;10051;40.294;-3.754;2024-03-08T01:54:16;7.47;;;1.90;;
19782;SDS011;10051;40.294;-3.754;2024-03-08T01:56:45;7.15;;;2.10;;
19782;SDS011;10051;40.294;-3.754;2024-03-08T01:59:11;2.15;;;0.93;;
19782;SDS011;10051;40.294;-3.754;2024-03-08T02:01:38;2.88;;;0.70;;
19782;SDS011;10051;40.294;-3.754;2024-03-08T02:04:03;1.48;;;0.40;;
19782;SDS011;10051;40.294;-3.754;2024-03-08T02:06:32;2.63;;;0.50;;
19782;SDS011;10051;40.294;-3.754;2024-03-08T02:08:58;0.73;;;0.40;;
19782;SDS011;10051;40.294;-3.754;2024-03-08T02:11:24;1.33;;;0.40;;
19782;SDS011;10051;40.294;-3.754;2024-03-08T02:13:49;3.65;;;0.60;;
19782;SDS011;10051;40.294;-3.754;2024-03-08T02:16:24;1.95;;;0.50;;
19782;SDS011;10051;40.294;-3.754;2024-03-08T02:18:49;1.17;;;0.60;;
19782;SDS011;10051;40.294;-3.754;2024-03-08T02:21:16;2.20;;;0.57;;
19782;SDS011;10051;40.294;-3.754;2024-03-08T02:23:46;0.75;;;0.50;;
19782;SDS011;10051;40.294;-3.754;2024-03-08T02:26:12;1.50;;;0.50;;
19782;SDS011;10051;40.294;-3.754;2024-03-08T02:28:37;2.10;;;0.60;;
19782;SDS011;10051;40.294;-3.754;2024-03-08T02:31:04;1.98;;;0.50;;
19782;SDS011;10051;40.294;-3.754;2024-03-08T02:33:33;1.05;;;0.50;;
19782;SDS011;10051;40.294;-3.754;2024-03-08T02:35:59;2.88;;;0.60;;
19782;SDS011;10051;40.294;-3.754;2024-03-08T02:38:25;0.88;;;0.65;;
19782;SDS011;10051;40.294;-3.754;2024-03-08T02:40:51;1.20;;;0.52;;
19782;SDS011;10051;40.294;-3.754;2024-03-08T02:43:18;1.85;;;0.50;;
19782;SDS011;10051;40.294;-3.754;2024-03-08T02:45:47;2.00;;;0.60;;
19782;SDS011;10051;40.294;-3.754;2024-03-08T02:48:13;1.25;;;0.57;;
19782;SDS011;10051;40.294;-3.754;2024-03-08T02:50:40;0.90;;;0.50;;
19782;SDS011;10051;40.294;-3.754;2024-03-08T02:53:08;3.25;;;0.60;;
19782;SDS011;10051;40.294;-3.754;2024-03-08T02:55:34;1.80;;;0.68;;
19782;SDS011;10051;40.294;-3.754;2024-03-08T02:58:01;2.83;;;0.70;;
19782;SDS011;10051;40.294;-3.754;2024-03-08T03:00:28;1.65;;;0.60;;
19782;SDS011;10051;40.294;-3.754;2024-03-08T03:02:56;1.47;;;0.70;;
19782;SDS011;10051;40.294;-3.754;2024-03-08T03:05:24;1.27;;;0.63;;
19782;SDS011;10051;40.294;-3.754;2024-03-08T03:07:50;1.63;;;0.70;;
19782;SDS011;10051;40.294;-3.754;2024-03-08T03:10:17;4.00;;;0.63;;
19782;SDS011;10051;40.294;-3.754;2024-03-08T03:12:43;2.37;;;0.60;;
19782;SDS011;10051;40.294;-3.754;2024-03-08T03:15:12;1.75;;;0.55;;
19782;SDS011;10051;40.294;-3.754;2024-03-08T03:17:39;1.80;;;0.57;;
19782;SDS011;10051;40.294;-3.754;2024-03-08T03:20:08;2.13;;;0.52;;
19782;SDS011;10051;40.294;-3.754;2024-03-08T03:22:39;0.63;;;0.50;;
19782;SDS011;10051;40.294;-3.754;2024-03-08T03:25:06;1.10;;;0.60;;
19782;SDS011;10051;40.294;-3.754;2024-03-08T03:27:35;3.23;;;1.03;;
19782;SDS011;10051;40.294;-3.754;2024-03-08T03:30:02;2.20;;;1.00;;
19782;SDS011;10051;40.294;-3.754;2024-03-08T03:32:46;4.47;;;1.40;;
19782;SDS011;10051;40.294;-3.754;2024-03-08T03:35:13;2.30;;;1.00;;
19782;SDS011;10051;40.294;-3.754;2024-03-08T03:37:40;1.13;;;0.50;;
19782;SDS011;10051;40.294;-3.754;2024-03-08T03:40:08;7.63;;;0.90;;
19782;SDS011;10051;40.294;-3.754;2024-03-08T03:42:34;2.03;;;0.70;;
19782;SDS011;10051;40.294;-3.754;2024-03-08T03:45:00;2.80;;;0.73;;
19782;SDS011;10051;40.294;-3.754;2024-03-08T03:47:28;1.50;;;0.70;;
19782;SDS011;10051;40.294;-3.754;2024-03-08T03:49:56;2.97;;;0.80;;
19782;SDS011;10051;40.294;-3.754;2024-03-08T03:52:26;2.00;;;0.60;;
19782;SDS011;10051;40.294;-3.754;2024-03-08T03:54:52;1.80;;;0.80;;
19782;SDS011;10051;40.294;-3.754;2024-03-08T03:57:18;2.83;;;0.80;;
19782;SDS011;10051;40.294;-3.754;2024-03-08T03:59:44;6.13;;;1.57;;
19782;SDS011;10051;40.294;-3.754;2024-03-08T04:02:10;4.60;;;1.60;;
19782;SDS011;10051;40.294;-3.754;2024-03-08T04:04:35;4.40;;;1.73;;
19782;SDS011;10051;40.294;-3.754;2024-03-08T04:07:01;7.20;;;2.00;;
19782;SDS011;10051;40.294;-3.754;2024-03-08T04:09:27;13.03;;;4.17;;
19782;SDS011;10051;40.294;-3.754;2024-03-08T04:11:53;5.33;;;2.10;;
19782;SDS011;10051;40.294;-3.754;2024-03-08T04:14:20;3.80;;;1.30;;
19782;SDS011;10051;40.294;-3.754;2024-03-08T04:16:46;2.17;;;0.73;;
19782;SDS011;10051;40.294;-3.754;2024-03-08T04:19:13;0.98;;;0.60;;
19782;SDS011;10051;40.294;-3.754;2024-03-08T04:21:39;2.30;;;0.70;;
19782;SDS011;10051;40.294;-3.754;2024-03-08T04:24:05;3.70;;;0.98;;
19782;SDS011;10051;40.294;-3.754;2024-03-08T04:26:31;3.85;;;1.60;;
19782;SDS011;10051;40.294;-3.754;2024-03-08T04:28:56;7.63;;;2.70;;
19782;SDS011;10051;40.294;-3.754;2024-03-08T04:31:22;9.82;;;4.30;;
19782;SDS011;10051;40.294;-3.754;2024-03-08T04:33:48;8.30;;;3.90;;
19782;SDS011;10051;40.294;-3.754;2024-03-08T04:36:13;7.88;;;3.40;;
19782;SDS011;10051;40.294;-3.754;2024-03-08T04:38:42;9.90;;;3.20;;
19782;SDS011;10051;40.294;-3.754;2024-03-08T04:41:08;10.77;;;2.63;;
19782;SDS011;10051;40.294;-3.754;2024-03-08T04:43:34;5.30;;;1.83;;
19782;SDS011;10051;40.294;-3.754;2024-03-08T04:45:59;3.03;;;0.80;;
19782;SDS011;10051;40.294;-3.754;2024-03-08T04:48:25;2.20;;;0.80;;
19782;SDS011;10051;40.294;-3.754;2024-03-08T04:50:52;3.28;;;0.77;;
19782;SDS011;10051;40.294;-3.754;2024-03-08T04:53:18;1.20;;;0.52;;
19782;SDS011;10051;40.294;-3.754;2024-03-08T04:55:44;1.10;;;0.60;;
19782;SDS011;10051;40.294;-3.754;2024-03-08T04:58:10;2.15;;;0.80;;
19782;SDS011;10051;40.294;-3.754;2024-03-08T05:00:35;1.30;;;0.80;;
19782;SDS011;10051;40.294;-3.754;2024-03-08T05:03:01;2.47;;;0.85;;
19782;SDS011;10051;40.294;-3.754;2024-03-08T05:05:26;2.80;;;1.10;;
19782;SDS011;10051;40.294;-3.754;2024-03-08T05:07:54;5.15;;;1.45;;
19782;SDS011;10051;40.294;-3.754;2024-03-08T05:10:19;2.00;;;1.30;;
19782;SDS011;10051;40.294;-3.754;2024-03-08T05:12:45;3.90;;;1.70;;
19782;SDS011;10051;40.294;-3.754;2024-03-08T05:15:11;3.15;;;1.77;;
19782;SDS011;10051;40.294;-3.754;2024-03-08T05:17:36;6.45;;;2.00;;
19782;SDS011;10051;40.294;-3.754;2024-03-08T05:20:02;3.13;;;1.90;;
19782;SDS011;10051;40.294;-3.754;2024-03-08T05:22:29;3.63;;;1.80;;
19782;SDS011;10051;40.294;-3.754;2024-03-08T05:24:54;2.10;;;1.60;;
19782;SDS011;10051;40.294;-3.754;2024-03-08T05:27:21;3.63;;;1.40;;
19782;SDS011;10051;40.294;-3.754;2024-03-08T05:29:47;1.95;;;1.10;;
19782;SDS011;10051;40.294;-3.754;2024-03-08T05:32:12;2.47;;;1.02;;
19782;SDS011;10051;40.294;-3.754;2024-03-08T05:34:39;2.65;;;1.45;;
19782;SDS011;10051;40.294;-3.754;2024-03-08T05:37:04;3.42;;;1.42;;
19782;SDS011;10051;40.294;-3.754;2024-03-08T05:39:32;4.18;;;1.60;;
19782;SDS011;10051;40.294;-3.754;2024-03-08T05:41:57;3.17;;;1.60;;
19782;SDS011;10051;40.294;-3.754;2024-03-08T05:44:23;4.20;;;1.67;;
19782;SDS011;10051;40.294;-3.754;2024-03-08T05:46:49;2.40;;;1.40;;
19782;SDS011;10051;40.294;-3.754;2024-03-08T05:49:15;3.95;;;1.58;;
19782;SDS011;10051;40.294;-3.754;2024-03-08T05:51:41;3.65;;;1.40;;
19782;SDS011;10051;40.294;-3.754;2024-03-08T05:54:07;2.60;;;1.20;;
19782;SDS011;10051;40.294;-3.754;2024-03-08T05:56:35;0.98;;;0.80;;
19782;SDS011;10051;40.294;-3.754;2024-03-08T05:59:01;1.10;;;0.90;;
19782;SDS011;10051;40.294;-3.754;2024-03-08T06:01:27;4.93;;;1.23;;
19782;SDS011;10051;40.294;-3.754;2024-03-08T06:03:53;1.70;;;1.00;;
19782;SDS011;10051;40.294;-3.754;2024-03-08T06:06:25;1.50;;;0.80;;
19782;SDS011;10051;40.294;-3.754;2024-03-08T06:08:51;0.80;;;0.60;;
19782;SDS011;10051;40.294;-3.754;2024-03-08T06:11:18;1.42;;;0.70;;
19782;SDS011;10051;40.294;-3.754;2024-03-08T06:13:45;2.13;;;0.90;;
19782;SDS011;10051;40.294;-3.754;2024-03-08T06:16:11;2.55;;;0.90;;
19782;SDS011;10051;40.294;-3.754;2024-03-08T06:18:37;2.15;;;0.90;;
19782;SDS011;10051;40.294;-3.754;2024-03-08T06:21:04;4.68;;;1.10;;
19782;SDS011;10051;40.294;-3.754;2024-03-08T06:23:33;3.97;;;1.13;;
19782;SDS011;10051;40.294;-3.754;2024-03-08T06:26:06;4.03;;;1.50;;
19782;SDS011;10051;40.294;-3.754;2024-03-08T06:28:33;2.23;;;1.40;;
19782;SDS011;10051;40.294;-3.754;2024-03-08T06:30:59;2.50;;;1.80;;
19782;SDS011;10051;40.294;-3.754;2024-03-08T06:33:26;3.40;;;1.63;;
19782;SDS011;10051;40.294;-3.754;2024-03-08T06:35:52;5.43;;;1.85;;
19782;SDS011;10051;40.294;-3.754;2024-03-08T06:38:18;3.53;;;2.25;;
19782;SDS011;10051;40.294;-3.754;2024-03-08T06:40:44;2.92;;;2.00;;
19782;SDS011;10051;40.294;-3.754;2024-03-08T06:43:12;4.28;;;2.20;;
19782;SDS011;10051;40.294;-3.754;2024-03-08T06:45:41;5.95;;;2.55;;
19782;SDS011;10051;40.294;-3.754;2024-03-08T06:48:07;3.97;;;2.75;;
19782;SDS011;10051;40.294;-3.754;2024-03-08T06:50:34;5.03;;;2.50;;
19782;SDS011;10051;40.294;-3.754;2024-03-08T06:53:01;6.57;;;2.70;;
19782;SDS011;10051;40.294;-3.754;2024-03-08T06:55:28;6.75;;;2.60;;
19782;SDS011;10051;40.294;-3.754;2024-03-08T06:57:54;6.25;;;2.42;;
19782;SDS011;10051;40.294;-3.754;2024-03-08T07:00:19;4.07;;;2.08;;
19782;SDS011;10051;40.294;-3.754;2024-03-08T07:02:45;4.43;;;2.30;;
19782;SDS011;10051;40.294;-3.754;2024-03-08T07:05:11;2.60;;;1.70;;
19782;SDS011;10051;40.294;-3.754;2024-03-08T07:07:37;5.15;;;2.05;;
19782;SDS011;10051;40.294;-3.754;2024-03-08T07:10:03;3.35;;;1.60;;
19782;SDS011;10051;40.294;-3.754;2024-03-08T07:12:29;4.33;;;1.37;;
19782;SDS011;10051;40.294;-3.754;2024-03-08T07:14:55;1.55;;;1.10;;
19782;SDS011;10051;40.294;-3.754;2024-03-08T07:17:20;2.53;;;1.10;;
19782;SDS011;10051;40.294;-3.754;2024-03-08T07:19:46;2.67;;;1.48;;
19782;SDS011;10051;40.294;-3.754;2024-03-08T07:22:12;2.15;;;1.17;;
19782;SDS011;10051;40.294;-3.754;2024-03-08T07:24:37;2.17;;;0.90;;
19782;SDS011;10051;40.294;-3.754;2024-03-08T07:27:03;3.43;;;0.90;;
19782;SDS011;10051;40.294;-3.754;2024-03-08T07:29:30;1.33;;;1.00;;
19782;SDS011;10051;40.294;-3.754;2024-03-08T07:31:56;1.60;;;0.90;;
19782;SDS011;10051;40.294;-3.754;2024-03-08T07:34:27;1.50;;;0.83;;
19782;SDS011;10051;40.294;-3.754;2024-03-08T07:36:57;3.53;;;1.10;;
19782;SDS011;10051;40.294;-3.754;2024-03-08T07:39:23;1.45;;;0.90;;
19782;SDS011;10051;40.294;-3.754;2024-03-08T07:41:49;2.57;;;0.93;;
19782;SDS011;10051;40.294;-3.754;2024-03-08T07:44:18;3.03;;;0.90;;
19782;SDS011;10051;40.294;-3.754;2024-03-08T07:46:44;1.92;;;0.90;;
19782;SDS011;10051;40.294;-3.754;2024-03-08T07:49:10;3.10;;;1.00;;
19782;SDS011;10051;40.294;-3.754;2024-03-08T07:51:37;2.38;;;0.93;;
19782;SDS011;10051;40.294;-3.754;2024-03-08T07:54:03;2.85;;;1.10;;
19782;SDS011;10051;40.294;-3.754;2024-03-08T07:56:29;2.33;;;1.10;;
19782;SDS011;10051;40.294;-3.754;2024-03-08T07:58:56;2.65;;;0.93;;
19782;SDS011;10051;40.294;-3.754;2024-03-08T08:01:21;2.35;;;0.80;;
19782;SDS011;10051;40.294;-3.754;2024-03-08T08:03:47;1.35;;;0.80;;
19782;SDS011;10051;40.294;-3.754;2024-03-08T08:06:15;1.02;;;0.60;;
19782;SDS011;10051;40.294;-3.754;2024-03-08T08:08:42;3.08;;;0.57;;
19782;SDS011;10051;40.294;-3.754;2024-03-08T08:11:08;2.87;;;0.70;;
19782;SDS011;10051;40.294;-3.754;2024-03-08T08:13:36;6.82;;;0.68;;
19782;SDS011;10051;40.294;-3.754;2024-03-08T08:16:05;2.72;;;0.57;;
19782;SDS011;10051;40.294;-3.754;2024-03-08T08:18:31;4.15;;;0.80;;
19782;SDS011;10051;40.294;-3.754;2024-03-08T08:20:58;6.65;;;1.00;;
19782;SDS011;10051;40.294;-3.754;2024-03-08T08:23:27;3.88;;;0.70;;
19782;SDS011;10051;40.294;-3.754;2024-03-08T08:25:52;4.63;;;0.80;;
19782;SDS011;10051;40.294;-3.754;2024-03-08T08:28:18;4.88;;;0.73;;
19782;SDS011;10051;40.294;-3.754;2024-03-08T08:30:44;2.42;;;0.80;;
19782;SDS011;10051;40.294;-3.754;2024-03-08T08:33:10;6.55;;;1.23;;
19782;SDS011;10051;40.294;-3.754;2024-03-08T08:35:39;6.78;;;0.85;;
19782;SDS011;10051;40.294;-3.754;2024-03-08T08:38:04;4.30;;;0.85;;
19782;SDS011;10051;40.294;-3.754;2024-03-08T08:40:30;4.18;;;0.93;;
19782;SDS011;10051;40.294;-3.754;2024-03-08T08:43:00;7.00;;;1.10;;
19782;SDS011;10051;40.294;-3.754;2024-03-08T08:45:25;5.85;;;0.90;;
19782;SDS011;10051;40.294;-3.754;2024-03-08T08:47:51;5.10;;;0.68;;
19782;SDS011;10051;40.294;-3.754;2024-03-08T08:50:17;2.85;;;0.70;;
19782;SDS011;10051;40.294;-3.754;2024-03-08T08:52:49;5.50;;;0.90;;
19782;SDS011;10051;40.294;-3.754;2024-03-08T08:55:15;2.17;;;0.60;;
19782;SDS011;10051;40.294;-3.754;2024-03-08T08:57:41;4.88;;;0.82;;
19782;SDS011;10051;40.294;-3.754;2024-03-08T09:00:07;4.70;;;0.70;;
19782;SDS011;10051;40.294;-3.754;2024-03-08T09:02:36;5.05;;;1.02;;
19782;SDS011;10051;40.294;-3.754;2024-03-08T09:05:03;7.15;;;0.95;;
19782;SDS011;10051;40.294;-3.754;2024-03-08T09:07:29;7.60;;;1.00;;
19782;SDS011;10051;40.294;-3.754;2024-03-08T09:09:55;7.95;;;0.95;;
19782;SDS011;10051;40.294;-3.754;2024-03-08T09:12:23;4.72;;;0.90;;
19782;SDS011;10051;40.294;-3.754;2024-03-08T09:14:49;6.53;;;1.27;;
19782;SDS011;10051;40.294;-3.754;2024-03-08T09:17:15;8.15;;;1.00;;
19782;SDS011;10051;40.294;-3.754;2024-03-08T09:19:48;7.57;;;1.10;;
19782;SDS011;10051;40.294;-3.754;2024-03-08T09:22:15;6.53;;;1.10;;
19782;SDS011;10051;40.294;-3.754;2024-03-08T09:24:41;5.63;;;1.00;;
19782;SDS011;10051;40.294;-3.754;2024-03-08T09:27:08;6.75;;;1.17;;
19782;SDS011;10051;40.294;-3.754;2024-03-08T09:29:35;6.28;;;1.10;;
19782;SDS011;10051;40.294;-3.754;2024-03-08T09:32:01;3.22;;;0.98;;
19782;SDS011;10051;40.294;-3.754;2024-03-08T09:34:26;7.78;;;1.15;;
19782;SDS011;10051;40.294;-3.754;2024-03-08T09:36:52;10.93;;;1.63;;
19782;SDS011;10051;40.294;-3.754;2024-03-08T09:39:18;6.85;;;1.20;;
19782;SDS011;10051;40.294;-3.754;2024-03-08T09:41:46;9.40;;;1.10;;
19782;SDS011;10051;40.294;-3.754;2024-03-08T09:44:17;5.63;;;1.10;;
19782;SDS011;10051;40.294;-3.754;2024-03-08T09:46:45;7.10;;;0.90;;
19782;SDS011;10051;40.294;-3.754;2024-03-08T09:49:12;4.22;;;1.13;;
19782;SDS011;10051;40.294;-3.754;2024-03-08T09:51:38;4.22;;;1.05;;
19782;SDS011;10051;40.294;-3.754;2024-03-08T09:54:06;5.75;;;1.00;;
19782;SDS011;10051;40.294;-3.754;2024-03-08T09:56:33;7.80;;;0.98;;
19782;SDS011;10051;40.294;-3.754;2024-03-08T09:59:00;4.97;;;0.90;;
19782;SDS011;10051;40.294;-3.754;2024-03-08T10:01:28;5.95;;;1.27;;
19782;SDS011;10051;40.294;-3.754;2024-03-08T10:03:54;4.55;;;0.70;;
19782;SDS011;10051;40.294;-3.754;2024-03-08T10:06:22;11.77;;;1.20;;
19782;SDS011;10051;40.294;-3.754;2024-03-08T10:08:48;7.82;;;1.27;;
19782;SDS011;10051;40.294;-3.754;2024-03-08T10:11:17;7.60;;;1.17;;
19782;SDS011;10051;40.294;-3.754;2024-03-08T10:13:44;9.55;;;1.08;;
19782;SDS011;10051;40.294;-3.754;2024-03-08T10:16:11;7.57;;;1.23;;
19782;SDS011;10051;40.294;-3.754;2024-03-08T10:18:37;15.68;;;1.17;;
19782;SDS011;10051;40.294;-3.754;2024-03-08T10:21:03;8.80;;;1.13;;
19782;SDS011;10051;40.294;-3.754;2024-03-08T10:23:32;8.38;;;1.08;;
19782;SDS011;10051;40.294;-3.754;2024-03-08T10:26:09;10.80;;;1.45;;
19782;SDS011;10051;40.294;-3.754;2024-03-08T10:28:44;7.38;;;1.30;;
19782;SDS011;10051;40.294;-3.754;2024-03-08T10:31:13;6.78;;;1.10;;
19782;SDS011;10051;40.294;-3.754;2024-03-08T10:33:40;10.25;;;1.50;;
19782;SDS011;10051;40.294;-3.754;2024-03-08T10:36:09;8.23;;;1.40;;
19782;SDS011;10051;40.294;-3.754;2024-03-08T10:38:36;9.88;;;1.50;;
19782;SDS011;10051;40.294;-3.754;2024-03-08T10:41:07;6.72;;;1.30;;
19782;SDS011;10051;40.294;-3.754;2024-03-08T10:48:37;9.63;;;1.40;;
19782;SDS011;10051;40.294;-3.754;2024-03-08T10:51:09;8.75;;;1.42;;
19782;SDS011;10051;40.294;-3.754;2024-03-08T10:53:37;9.40;;;1.20;;
19782;SDS011;10051;40.294;-3.754;2024-03-08T10:56:06;10.43;;;1.17;;
19782;SDS011;10051;40.294;-3.754;2024-03-08T10:58:34;10.85;;;1.58;;
19782;SDS011;10051;40.294;-3.754;2024-03-08T11:01:01;8.13;;;1.30;;
19782;SDS011;10051;40.294;-3.754;2024-03-08T11:06:10;10.45;;;1.25;;
19782;SDS011;10051;40.294;-3.754;2024-03-08T11:08:40;7.70;;;1.05;;
19782;SDS011;10051;40.294;-3.754;2024-03-08T11:11:22;4.03;;;1.02;;
19782;SDS011;10051;40.294;-3.754;2024-03-08T11:13:52;6.40;;;1.25;;
19782;SDS011;10051;40.294;-3.754;2024-03-08T11:19:33;5.68;;;1.08;;
19782;SDS011;10051;40.294;-3.754;2024-03-08T11:21:39;5.50;;;1.00;;
19782;SDS011;10051;40.294;-3.754;2024-03-08T11:24:12;11.30;;;1.33;;
19782;SDS011;10051;40.294;-3.754;2024-03-08T11:26:39;7.60;;;1.10;;
19782;SDS011;10051;40.294;-3.754;2024-03-08T11:32:30;9.85;;;1.20;;
19782;SDS011;10051;40.294;-3.754;2024-03-08T11:34:53;7.82;;;1.30;;
19782;SDS011;10051;40.294;-3.754;2024-03-08T11:37:20;9.68;;;1.17;;
19782;SDS011;10051;40.294;-3.754;2024-03-08T11:39:47;7.22;;;1.08;;
19782;SDS011;10051;40.294;-3.754;2024-03-08T11:42:17;4.00;;;1.20;;
19782;SDS011;10051;40.294;-3.754;2024-03-08T11:44:45;6.50;;;1.08;;
19782;SDS011;10051;40.294;-3.754;2024-03-08T11:47:15;12.48;;;1.70;;
19782;SDS011;10051;40.294;-3.754;2024-03-08T11:49:41;8.93;;;1.35;;
19782;SDS011;10051;40.294;-3.754;2024-03-08T11:52:12;6.93;;;1.02;;
19782;SDS011;10051;40.294;-3.754;2024-03-08T11:54:42;10.63;;;1.20;;
19782;SDS011;10051;40.294;-3.754;2024-03-08T11:57:16;6.03;;;1.15;;
19782;SDS011;10051;40.294;-3.754;2024-03-08T11:59:49;5.75;;;0.95;;
19782;SDS011;10051;40.294;-3.754;2024-03-08T12:02:15;6.88;;;1.35;;
19782;SDS011;10051;40.294;-3.754;2024-03-08T12:04:41;9.95;;;1.30;;
19782;SDS011;10051;40.294;-3.754;2024-03-08T12:07:09;4.72;;;0.90;;
19782;SDS011;10051;40.294;-3.754;2024-03-08T12:09:37;7.78;;;1.08;;
19782;SDS011;10051;40.294;-3.754;2024-03-08T12:12:03;9.43;;;1.40;;
19782;SDS011;10051;40.294;-3.754;2024-03-08T12:14:29;6.93;;;1.20;;
19782;SDS011;10051;40.294;-3.754;2024-03-08T12:16:57;8.63;;;1.20;;
19782;SDS011;10051;40.294;-3.754;2024-03-08T12:19:22;5.40;;;1.03;;
19782;SDS011;10051;40.294;-3.754;2024-03-08T12:21:48;9.37;;;1.40;;
19782;SDS011;10051;40.294;-3.754;2024-03-08T12:24:15;10.88;;;1.50;;
19782;SDS011;10051;40.294;-3.754;2024-03-08T12:26:45;8.55;;;1.10;;
19782;SDS011;10051;40.294;-3.754;2024-03-08T12:29:20;4.75;;;1.10;;
19782;SDS011;10051;40.294;-3.754;2024-03-08T12:31:52;6.55;;;1.50;;
19782;SDS011;10051;40.294;-3.754;2024-03-08T12:34:23;5.25;;;1.00;;
19782;SDS011;10051;40.294;-3.754;2024-03-08T12:36:50;6.70;;;1.20;;
19782;SDS011;10051;40.294;-3.754;2024-03-08T12:39:19;5.55;;;1.13;;
19782;SDS011;10051;40.294;-3.754;2024-03-08T12:41:48;6.60;;;0.95;;
19782;SDS011;10051;40.294;-3.754;2024-03-08T12:44:14;7.78;;;1.20;;
19782;SDS011;10051;40.294;-3.754;2024-03-08T12:46:40;7.53;;;1.58;;
19782;SDS011;10051;40.294;-3.754;2024-03-08T12:49:09;7.38;;;1.17;;
19782;SDS011;10051;40.294;-3.754;2024-03-08T12:51:35;6.88;;;1.10;;
19782;SDS011;10051;40.294;-3.754;2024-03-08T12:54:02;6.65;;;1.38;;
19782;SDS011;10051;40.294;-3.754;2024-03-08T12:56:28;6.60;;;1.13;;
19782;SDS011;10051;40.294;-3.754;2024-03-08T12:58:55;5.20;;;1.10;;
19782;SDS011;10051;40.294;-3.754;2024-03-08T13:01:21;7.43;;;1.10;;
19782;SDS011;10051;40.294;-3.754;2024-03-08T13:03:47;6.80;;;1.15;;
19782;SDS011;10051;40.294;-3.754;2024-03-08T13:06:14;7.88;;;1.10;;
19782;SDS011;10051;40.294;-3.754;2024-03-08T13:08:41;9.25;;;1.40;;
19782;SDS011;10051;40.294;-3.754;2024-03-08T13:11:07;8.93;;;1.50;;
19782;SDS011;10051;40.294;-3.754;2024-03-08T13:13:33;5.70;;;1.27;;
19782;SDS011;10051;40.294;-3.754;2024-03-08T13:16:02;8.45;;;1.10;;
19782;SDS011;10051;40.294;-3.754;2024-03-08T13:18:28;6.53;;;1.20;;
19782;SDS011;10051;40.294;-3.754;2024-03-08T13:20:54;9.25;;;1.23;;
19782;SDS011;10051;40.294;-3.754;2024-03-08T13:23:20;10.77;;;1.25;;
19782;SDS011;10051;40.294;-3.754;2024-03-08T13:25:46;7.70;;;1.17;;
19782;SDS011;10051;40.294;-3.754;2024-03-08T13:28:15;9.02;;;1.48;;
19782;SDS011;10051;40.294;-3.754;2024-03-08T13:30:42;6.88;;;1.33;;
19782;SDS011;10051;40.294;-3.754;2024-03-08T13:33:09;8.52;;;1.25;;
19782;SDS011;10051;40.294;-3.754;2024-03-08T13:35:34;6.50;;;1.23;;
19782;SDS011;10051;40.294;-3.754;2024-03-08T13:38:00;6.97;;;1.20;;
19782;SDS011;10051;40.294;-3.754;2024-03-08T13:40:29;5.18;;;0.98;;
19782;SDS011;10051;40.294;-3.754;2024-03-08T13:42:56;6.93;;;1.00;;
19782;SDS011;10051;40.294;-3.754;2024-03-08T13:45:21;7.07;;;1.40;;
19782;SDS011;10051;40.294;-3.754;2024-03-08T13:47:50;8.15;;;1.20;;
19782;SDS011;10051;40.294;-3.754;2024-03-08T13:50:18;10.20;;;1.23;;
19782;SDS011;10051;40.294;-3.754;2024-03-08T13:52:48;8.18;;;1.23;;
19782;SDS011;10051;40.294;-3.754;2024-03-08T13:55:18;6.13;;;0.90;;
19782;SDS011;10051;40.294;-3.754;2024-03-08T13:57:44;6.70;;;1.13;;
19782;SDS011;10051;40.294;-3.754;2024-03-08T14:00:10;5.05;;;1.30;;
19782;SDS011;10051;40.294;-3.754;2024-03-08T14:02:37;5.90;;;1.08;;
19782;SDS011;10051;40.294;-3.754;2024-03-08T14:05:05;5.20;;;0.98;;
19782;SDS011;10051;40.294;-3.754;2024-03-08T14:07:34;6.43;;;1.30;;
19782;SDS011;10051;40.294;-3.754;2024-03-08T14:10:00;5.80;;;1.10;;
19782;SDS011;10051;40.294;-3.754;2024-03-08T14:12:25;8.65;;;1.20;;
19782;SDS011;10051;40.294;-3.754;2024-03-08T14:14:52;3.95;;;0.90;;
19782;SDS011;10051;40.294;-3.754;2024-03-08T14:17:18;5.03;;;0.80;;
19782;SDS011;10051;40.294;-3.754;2024-03-08T14:19:43;5.80;;;1.52;;
19782;SDS011;10051;40.294;-3.754;2024-03-08T14:22:09;3.28;;;0.80;;
19782;SDS011;10051;40.294;-3.754;2024-03-08T14:24:42;5.25;;;1.05;;
19782;SDS011;10051;40.294;-3.754;2024-03-08T14:27:09;6.38;;;1.13;;
19782;SDS011;10051;40.294;-3.754;2024-03-08T14:29:37;7.00;;;1.10;;
19782;SDS011;10051;40.294;-3.754;2024-03-08T14:32:06;4.68;;;1.10;;
19782;SDS011;10051;40.294;-3.754;2024-03-08T14:34:33;5.22;;;1.00;;
19782;SDS011;10051;40.294;-3.754;2024-03-08T14:36:59;4.85;;;1.20;;
19782;SDS011;10051;40.294;-3.754;2024-03-08T14:39:25;5.47;;;1.20;;
19782;SDS011;10051;40.294;-3.754;2024-03-08T14:41:54;4.43;;;1.02;;
19782;SDS011;10051;40.294;-3.754;2024-03-08T14:44:23;4.43;;;0.93;;
19782;SDS011;10051;40.294;-3.754;2024-03-08T14:46:51;6.85;;;0.95;;